createdAt,value
2019-02-06T00:01:27.307Z,19.23
2019-02-06T00:06:44.719Z,18.07
2019-02-06T00:09:13.493Z,17.67
2019-02-06T00:11:41.271Z,16.63
2019-02-06T00:14:09.191Z,15.67
2019-02-06T00:16:39.219Z,18.47
2019-02-06T00:19:07.190Z,17.77
2019-02-06T00:21:35.428Z,18.27
2019-02-06T00:24:03.479Z,20.20
2019-02-06T00:26:31.156Z,19.00
2019-02-06T00:28:59.277Z,18.43
2019-02-06T00:31:26.964Z,15.73
2019-02-06T00:33:54.640Z,18.83
2019-02-06T00:36:22.419Z,21.33
2019-02-06T00:38:50.711Z,21.80
2019-02-06T00:41:18.791Z,22.87
2019-02-06T00:43:46.813Z,21.37
2019-02-06T00:46:14.816Z,21.17
2019-02-06T00:48:42.553Z,20.60
2019-02-06T00:51:10.227Z,26.23
2019-02-06T00:53:37.972Z,25.03
2019-02-06T00:56:06.164Z,23.20
2019-02-06T00:58:33.946Z,22.93
2019-02-06T01:01:01.776Z,25.77
2019-02-06T01:03:29.792Z,24.30
2019-02-06T01:08:50.677Z,27.17
2019-02-06T01:11:18.565Z,26.83
2019-02-06T01:13:46.192Z,26.90
2019-02-06T01:16:14.397Z,23.90
2019-02-06T01:18:42.016Z,26.00
2019-02-06T01:21:09.678Z,27.63
2019-02-06T01:23:37.320Z,27.73
2019-02-06T01:26:05.020Z,30.30
2019-02-06T01:28:32.932Z,35.27
2019-02-06T01:31:06.458Z,28.80
2019-02-06T01:33:34.100Z,32.57
2019-02-06T01:36:01.740Z,29.93
2019-02-06T01:38:29.406Z,29.03
2019-02-06T01:43:32.984Z,34.13
2019-02-06T01:46:00.628Z,35.00
2019-02-06T01:48:28.232Z,37.47
2019-02-06T01:50:55.907Z,39.27
2019-02-06T01:53:23.787Z,41.43
2019-02-06T01:55:51.704Z,41.10
2019-02-06T01:58:19.506Z,46.03
2019-02-06T02:00:47.163Z,47.40
2019-02-06T02:03:14.759Z,49.80
2019-02-06T02:05:42.643Z,49.87
2019-02-06T02:11:00.635Z,47.50
2019-02-06T02:13:35.856Z,47.77
2019-02-06T02:16:11.691Z,51.33
2019-02-06T02:18:47.438Z,51.17
2019-02-06T02:21:21.508Z,49.17
2019-02-06T02:23:58.268Z,52.93
2019-02-06T02:26:34.775Z,47.30
2019-02-06T02:29:10.757Z,52.87
2019-02-06T02:31:45.994Z,49.87
2019-02-06T02:34:21.003Z,52.17
2019-02-06T02:36:55.032Z,53.10
2019-02-06T02:39:28.695Z,54.67
2019-02-06T02:42:03.986Z,57.73
2019-02-06T02:44:38.087Z,59.93
2019-02-06T02:47:12.257Z,61.17
2019-02-06T02:49:47.810Z,59.47
2019-02-06T02:52:25.427Z,57.13
2019-02-06T02:54:59.458Z,59.97
2019-02-06T02:57:37.738Z,63.27
2019-02-06T03:00:15.007Z,70.70
2019-02-06T03:03:03.043Z,77.13
2019-02-06T03:05:38.859Z,72.53
2019-02-06T03:08:12.721Z,72.80
2019-02-06T03:10:46.538Z,76.03
2019-02-06T03:13:20.211Z,80.13
2019-02-06T03:15:55.979Z,74.67
2019-02-06T03:18:31.991Z,77.00
2019-02-06T03:21:07.932Z,78.57
2019-02-06T03:23:40.527Z,75.43
2019-02-06T03:26:18.041Z,82.50
2019-02-06T03:28:52.318Z,81.37
2019-02-06T03:31:29.225Z,81.63
2019-02-06T03:34:04.718Z,78.67
2019-02-06T03:36:42.734Z,85.43
2019-02-06T03:39:21.173Z,90.00
2019-02-06T03:41:56.243Z,92.60
2019-02-06T03:44:31.841Z,93.60
2019-02-06T03:47:05.820Z,102.70
2019-02-06T03:49:42.773Z,99.50
2019-02-06T03:52:18.951Z,106.97
2019-02-06T03:54:52.937Z,114.10
2019-02-06T03:57:27.198Z,116.47
2019-02-06T04:00:01.142Z,115.43
2019-02-06T04:02:37.254Z,120.17
2019-02-06T04:05:11.469Z,114.37
2019-02-06T04:07:47.051Z,110.77
2019-02-06T04:10:23.282Z,112.00
2019-02-06T04:12:57.434Z,117.60
2019-02-06T04:15:38.749Z,121.23
2019-02-06T04:18:18.585Z,117.87
2019-02-06T04:20:57.569Z,114.27
2019-02-06T04:23:34.819Z,118.90
2019-02-06T04:26:13.429Z,133.20
2019-02-06T04:29:19.143Z,115.60
2019-02-06T04:31:57.801Z,121.30
2019-02-06T04:37:41.273Z,125.23
2019-02-06T04:43:28.770Z,123.10
2019-02-06T04:46:01.728Z,127.23
2019-02-06T04:48:35.814Z,122.53
2019-02-06T04:51:08.749Z,141.67
2019-02-06T04:53:44.159Z,132.83
2019-02-06T04:56:20.582Z,128.93
2019-02-06T04:58:56.554Z,137.77
2019-02-06T05:01:33.190Z,130.70
2019-02-06T05:04:11.159Z,134.53
2019-02-06T05:06:46.519Z,113.70
2019-02-06T05:09:22.725Z,134.23
2019-02-06T05:11:58.022Z,130.80
2019-02-06T05:14:43.022Z,137.90
2019-02-06T05:17:19.052Z,147.57
2019-02-06T05:19:53.173Z,141.70
2019-02-06T05:22:26.698Z,147.90
2019-02-06T05:25:01.019Z,146.50
2019-02-06T05:27:39.848Z,151.27
2019-02-06T05:30:22.207Z,157.73
2019-02-06T05:33:00.276Z,159.87
2019-02-06T05:35:34.370Z,173.83
2019-02-06T05:38:08.621Z,157.53
2019-02-06T05:40:44.548Z,161.63
2019-02-06T05:43:19.961Z,163.60
2019-02-06T05:45:56.381Z,169.77
2019-02-06T05:48:30.016Z,164.23
2019-02-06T05:51:03.243Z,171.80
2019-02-06T05:57:23.692Z,162.07
2019-02-06T06:03:10.287Z,163.57
2019-02-06T06:05:43.345Z,171.77
2019-02-06T06:08:16.504Z,165.93
2019-02-06T06:10:50.812Z,175.97
2019-02-06T06:13:48.862Z,148.90
2019-02-06T06:16:32.818Z,160.53
2019-02-06T06:19:05.741Z,149.00
2019-02-06T06:21:38.851Z,146.13
2019-02-06T06:24:11.890Z,141.67
2019-02-06T06:26:47.077Z,134.53
2019-02-06T06:29:22.711Z,132.93
2019-02-06T06:31:59.562Z,137.87
2019-02-06T06:34:45.497Z,123.00
2019-02-06T06:37:18.729Z,129.67
2019-02-06T06:39:53.899Z,132.37
2019-02-06T06:42:28.236Z,123.73
2019-02-06T06:45:08.378Z,114.70
2019-02-06T06:47:41.466Z,116.83
2019-02-06T06:50:15.776Z,122.80
2019-02-06T06:52:51.193Z,117.57
2019-02-06T06:55:24.399Z,117.63
2019-02-06T06:57:57.661Z,118.23
2019-02-06T07:00:33.243Z,117.33
2019-02-06T07:03:06.361Z,119.97
2019-02-06T07:05:39.558Z,125.17
2019-02-06T07:11:35.840Z,121.07
2019-02-06T07:14:11.387Z,113.00
2019-02-06T07:16:44.443Z,111.57
2019-02-06T07:19:18.582Z,120.83
2019-02-06T07:21:52.065Z,127.70
2019-02-06T07:24:25.109Z,118.27
2019-02-06T07:27:09.690Z,118.33
2019-02-06T07:29:42.780Z,109.00
2019-02-06T07:32:17.417Z,112.60
2019-02-06T07:34:50.503Z,102.60
2019-02-06T07:37:26.188Z,117.07
2019-02-06T07:40:01.808Z,117.33
2019-02-06T07:42:35.295Z,124.57
2019-02-06T07:45:08.705Z,110.83
2019-02-06T07:47:45.847Z,114.73
2019-02-06T07:50:27.384Z,118.80
2019-02-06T07:53:02.625Z,120.27
2019-02-06T07:55:39.939Z,111.97
2019-02-06T07:58:13.661Z,117.27
2019-02-06T08:00:49.418Z,123.73
2019-02-06T08:03:18.958Z,128.03
2019-02-06T08:05:47.020Z,124.87
2019-02-06T08:08:14.597Z,118.00
2019-02-06T08:10:43.241Z,123.60
2019-02-06T08:13:11.469Z,113.27
2019-02-06T08:15:39.105Z,115.53
2019-02-06T08:18:06.973Z,108.07
2019-02-06T08:20:35.413Z,113.37
2019-02-06T08:23:03.191Z,122.67
2019-02-06T08:25:30.879Z,119.33
2019-02-06T08:27:59.496Z,115.40
2019-02-06T08:30:31.071Z,120.50
2019-02-06T08:32:58.729Z,113.73
2019-02-06T08:35:26.735Z,124.93
2019-02-06T08:37:54.652Z,123.73
2019-02-06T08:40:22.627Z,122.70
2019-02-06T08:42:53.793Z,113.77
2019-02-06T08:45:21.700Z,116.90
2019-02-06T08:47:49.405Z,122.30
2019-02-06T08:50:17.618Z,122.10
2019-02-06T08:52:45.661Z,123.73
2019-02-06T08:55:15.652Z,120.73
2019-02-06T08:57:43.751Z,117.80
2019-02-06T09:00:13.718Z,116.43
2019-02-06T09:02:41.588Z,121.47
2019-02-06T09:05:09.585Z,118.60
2019-02-06T09:07:39.715Z,117.27
2019-02-06T09:10:08.891Z,115.10
2019-02-06T09:12:36.562Z,114.90
2019-02-06T09:15:06.093Z,104.67
2019-02-06T09:17:33.778Z,105.23
2019-02-06T09:20:01.867Z,107.07
2019-02-06T09:22:29.673Z,105.63
2019-02-06T09:24:57.940Z,113.80
2019-02-06T09:27:25.610Z,96.00
2019-02-06T09:29:53.498Z,107.03
2019-02-06T09:32:21.149Z,114.50
2019-02-06T09:34:49.588Z,112.40
2019-02-06T09:37:17.580Z,106.17
2019-02-06T09:39:45.580Z,107.60
2019-02-06T09:42:14.157Z,104.73
2019-02-06T10:53:26.550Z,67.40
2019-02-06T10:55:54.255Z,61.17
2019-02-06T10:58:21.938Z,64.60
2019-02-06T11:00:52.057Z,59.23
2019-02-06T11:06:18.830Z,70.77
2019-02-06T11:08:46.507Z,68.13
2019-02-06T11:11:14.183Z,69.13
2019-02-06T11:13:41.876Z,67.70
2019-02-06T11:16:09.525Z,65.00
2019-02-06T11:18:37.223Z,68.90
2019-02-06T11:21:04.883Z,62.73
2019-02-06T11:26:21.813Z,59.00
2019-02-06T11:28:49.787Z,59.70
2019-02-06T11:31:17.527Z,53.90
2019-02-06T11:33:45.199Z,58.10
2019-02-06T11:36:23.600Z,62.37
2019-02-06T11:38:42.594Z,60.87
2019-02-06T11:41:10.235Z,48.60
2019-02-06T11:51:54.388Z,47.70
2019-02-06T11:54:22.435Z,52.40
2019-02-06T11:56:51.313Z,44.00
2019-02-06T11:59:19.216Z,43.97
2019-02-06T12:01:50.848Z,48.33
2019-02-06T12:04:18.603Z,44.13
2019-02-06T12:06:46.688Z,43.17
2019-02-06T12:09:14.502Z,43.47
2019-02-06T12:11:42.311Z,47.10
2019-02-06T12:14:10.095Z,46.37
2019-02-06T12:16:37.911Z,43.80
2019-02-06T12:19:05.794Z,51.13
2019-02-06T12:21:33.639Z,47.43
2019-02-06T12:24:01.523Z,53.70
2019-02-06T12:26:29.436Z,56.53
2019-02-06T12:28:57.354Z,56.67
2019-02-06T12:31:25.262Z,55.80
2019-02-06T12:33:54.748Z,60.10
2019-02-06T12:36:22.747Z,61.53
2019-02-06T12:38:53.586Z,57.57
2019-02-06T12:41:20.488Z,63.97
2019-02-06T12:43:48.411Z,58.93
2019-02-06T12:46:16.670Z,62.73
2019-02-06T12:48:44.650Z,58.93
2019-02-06T12:51:12.581Z,60.57
2019-02-06T12:53:41.041Z,62.47
2019-02-06T12:56:08.897Z,66.70
2019-02-06T12:58:36.969Z,67.13
2019-02-06T13:01:05.118Z,67.67
2019-02-06T13:03:32.991Z,71.67
2019-02-06T13:06:01.240Z,72.40
2019-02-06T13:08:29.341Z,62.37
2019-02-06T13:10:57.403Z,69.13
2019-02-06T13:13:25.754Z,61.63
2019-02-06T13:15:54.638Z,62.93
2019-02-06T13:18:24.507Z,67.80
2019-02-06T13:20:55.823Z,58.57
2019-02-06T13:23:27.211Z,58.37
2019-02-06T13:26:01.541Z,58.93
2019-02-06T13:28:38.768Z,51.70
2019-02-06T13:31:15.212Z,45.13
2019-02-06T13:33:50.274Z,45.07
2019-02-06T13:40:52.096Z,43.03
2019-02-06T13:49:29.058Z,44.00
2019-02-06T13:51:57.040Z,37.93
2019-02-06T13:54:24.772Z,37.13
2019-02-06T13:56:52.923Z,37.50
2019-02-06T13:59:20.537Z,42.53
2019-02-06T14:01:48.376Z,40.00
2019-02-06T14:04:16.571Z,39.37
2019-02-06T14:06:44.179Z,43.73
2019-02-06T14:09:22.299Z,44.03
2019-02-06T14:11:44.842Z,49.87
2019-02-06T14:14:12.966Z,46.77
2019-02-06T14:22:05.893Z,51.73
2019-02-06T14:24:48.141Z,44.73
2019-02-06T14:27:37.826Z,44.87
2019-02-06T14:30:24.836Z,39.27
2019-02-06T14:33:11.576Z,38.10
2019-02-06T14:35:52.406Z,37.97
2019-02-06T14:38:40.030Z,37.37
2019-02-06T14:41:25.476Z,40.63
2019-02-06T14:44:21.515Z,39.97
2019-02-06T14:47:05.464Z,38.20
2019-02-06T14:49:50.544Z,41.00
2019-02-06T14:52:24.454Z,41.53
2019-02-06T14:55:05.216Z,43.90
2019-02-06T14:57:41.846Z,40.13
2019-02-06T15:00:21.967Z,39.20
2019-02-06T15:03:09.345Z,37.20
2019-02-06T15:05:41.404Z,41.43
2019-02-06T15:08:30.909Z,39.07
2019-02-06T15:14:20.867Z,38.90
2019-02-06T15:17:11.798Z,40.43
2019-02-06T15:19:45.658Z,41.93
2019-02-06T15:22:33.113Z,44.07
2019-02-06T15:25:13.529Z,44.60
2019-02-06T15:27:54.321Z,47.73
2019-02-06T15:30:39.918Z,45.63
2019-02-06T15:33:25.720Z,56.00
2019-02-06T15:36:00.559Z,48.27
2019-02-06T15:41:34.389Z,58.90
2019-02-06T15:44:25.984Z,50.73
2019-02-06T15:47:13.203Z,56.37
2019-02-06T15:49:53.464Z,57.30
2019-02-06T15:52:40.189Z,58.03
2019-02-06T15:55:28.559Z,59.20
2019-02-06T15:58:16.039Z,65.67
2019-02-06T16:01:03.421Z,60.40
2019-02-06T16:04:16.308Z,73.03
2019-02-06T16:06:55.029Z,74.30
2019-02-06T16:09:46.312Z,71.70
2019-02-06T16:12:17.040Z,68.83
2019-02-06T16:14:50.709Z,75.53
2019-02-06T16:17:39.854Z,69.33
2019-02-06T16:20:11.097Z,65.90
2019-02-06T16:23:02.112Z,70.67
2019-02-06T16:25:37.687Z,68.00
2019-02-06T16:28:31.047Z,67.53
2019-02-06T16:31:18.314Z,74.83
2019-02-06T16:34:08.863Z,74.03
2019-02-06T16:36:52.537Z,66.20
2019-02-06T16:39:39.850Z,67.83
2019-02-06T16:42:36.484Z,59.97
2019-02-06T16:45:26.172Z,60.67
2019-02-06T16:50:43.351Z,64.67
2019-02-06T16:53:30.658Z,61.43
2019-02-06T16:56:23.908Z,61.50
2019-02-06T16:59:11.135Z,54.20
2019-02-06T17:01:58.819Z,58.97
2019-02-06T17:04:46.102Z,55.20
2019-02-06T17:07:29.788Z,58.83
2019-02-06T17:10:20.294Z,58.87
2019-02-06T17:13:02.038Z,62.80
2019-02-06T17:15:54.689Z,63.93
2019-02-06T17:18:45.109Z,65.07
2019-02-06T17:21:50.545Z,70.70
2019-02-06T17:24:36.010Z,71.37
2019-02-06T17:27:10.063Z,79.47
2019-02-06T17:29:46.331Z,76.33
2019-02-06T17:32:33.604Z,77.97
2019-02-06T17:35:23.684Z,76.67
2019-02-06T17:38:08.688Z,79.40
2019-02-06T17:40:58.957Z,74.47
2019-02-06T17:43:34.333Z,81.43
2019-02-06T17:46:27.464Z,81.53
2019-02-06T17:49:17.423Z,83.07
2019-02-06T17:52:19.818Z,89.20
2019-02-06T17:54:52.396Z,85.57
2019-02-06T17:57:20.604Z,86.73
2019-02-06T17:59:48.278Z,80.10
2019-02-06T18:02:16.335Z,83.33
2019-02-06T18:04:44.771Z,87.00
2019-02-06T18:07:12.555Z,93.63
2019-02-06T18:13:05.029Z,93.47
2019-02-06T18:15:32.960Z,90.57
2019-02-06T18:18:01.488Z,92.83
2019-02-06T18:20:29.167Z,91.27
2019-02-06T18:22:57.111Z,87.63
2019-02-06T18:25:25.046Z,99.60
2019-02-06T18:33:26.294Z,93.90
2019-02-06T18:35:53.953Z,86.50
2019-02-06T18:38:21.632Z,101.33
2019-02-06T18:40:49.561Z,94.00
2019-02-06T18:43:17.255Z,98.53
2019-02-06T18:45:44.874Z,94.20
2019-02-06T18:54:01.242Z,95.90
2019-02-06T18:56:28.938Z,97.90
2019-02-06T18:58:57.171Z,93.27
2019-02-06T19:01:26.071Z,84.43
2019-02-06T19:03:53.983Z,89.77
2019-02-06T19:06:21.852Z,93.07
2019-02-06T19:08:49.510Z,84.77
2019-02-06T19:11:17.434Z,92.20
2019-02-06T19:13:45.110Z,94.17
2019-02-06T19:16:12.881Z,92.97
2019-02-06T19:18:40.453Z,98.47
2019-02-06T19:21:08.385Z,93.37
2019-02-06T19:23:36.286Z,97.90
2019-02-06T19:26:04.049Z,96.27
2019-02-06T19:34:09.076Z,91.73
2019-02-06T19:36:37.105Z,86.33
2019-02-06T19:39:09.892Z,83.07
2019-02-06T19:44:43.063Z,80.13
2019-02-06T19:47:10.844Z,74.67
2019-02-06T19:52:28.240Z,77.57
2019-02-06T19:54:56.272Z,83.63
2019-02-06T19:57:26.029Z,76.47
2019-02-06T19:59:53.860Z,67.63
2019-02-06T20:02:21.647Z,75.23
2019-02-06T20:04:49.370Z,68.90
2019-02-06T20:07:17.085Z,82.57
2019-02-06T20:09:44.789Z,70.80
2019-02-06T20:12:12.523Z,75.40
2019-02-06T20:14:40.954Z,65.73
2019-02-06T20:17:08.607Z,62.40
2019-02-06T20:19:36.299Z,62.07
2019-02-06T20:22:04.339Z,65.10
2019-02-06T20:24:32.128Z,68.77
2019-02-06T20:27:00.098Z,74.23
2019-02-06T20:29:27.890Z,68.93
2019-02-06T20:31:55.664Z,65.70
2019-02-06T20:34:23.704Z,64.63
2019-02-06T20:36:51.548Z,68.33
2019-02-06T20:39:19.538Z,71.67
2019-02-06T20:41:47.325Z,68.73
2019-02-06T20:44:15.136Z,71.77
2019-02-06T20:46:42.849Z,71.03
2019-02-06T20:49:10.873Z,68.97
2019-02-06T20:51:38.534Z,67.80
2019-02-06T20:54:06.477Z,69.73
2019-02-06T20:56:34.115Z,83.40
2019-02-06T20:59:03.145Z,70.20
2019-02-06T21:01:31.323Z,75.50
2019-02-06T21:03:58.999Z,72.93
2019-02-06T21:06:26.882Z,74.47
2019-02-06T21:08:54.579Z,75.13
2019-02-06T21:11:22.182Z,72.73
2019-02-06T21:13:50.020Z,75.47
2019-02-06T21:16:17.692Z,73.90
2019-02-06T21:18:46.753Z,69.60
2019-02-06T21:21:14.339Z,65.03
2019-02-06T21:23:42.359Z,66.40
2019-02-06T21:26:10.022Z,62.33
2019-02-06T21:28:37.722Z,58.73
2019-02-06T21:31:05.557Z,59.50
2019-02-06T21:33:33.289Z,64.20
2019-02-06T21:36:01.076Z,63.60
2019-02-06T21:38:29.442Z,61.77
2019-02-06T21:40:57.554Z,60.37
2019-02-06T21:43:25.705Z,55.40
2019-02-06T21:45:53.563Z,56.67
2019-02-06T21:48:22.414Z,58.90
2019-02-06T21:50:50.240Z,56.27
2019-02-06T21:53:18.268Z,60.10
2019-02-06T21:55:46.291Z,59.17
2019-02-06T21:58:13.994Z,56.87
2019-02-06T22:00:41.720Z,55.57
2019-02-06T22:03:10.771Z,55.47
2019-02-06T22:05:39.394Z,53.10
2019-02-06T22:08:07.440Z,51.57
2019-02-06T22:10:35.115Z,56.73
2019-02-06T22:13:03.731Z,50.90
2019-02-06T22:15:31.407Z,51.30
2019-02-06T22:17:59.372Z,50.53
2019-02-06T22:20:27.296Z,47.80
2019-02-06T22:22:54.966Z,50.60
2019-02-06T22:25:22.741Z,49.47
2019-02-06T22:27:50.847Z,49.83
2019-02-06T22:30:22.374Z,50.07
2019-02-06T22:32:50.205Z,44.33
2019-02-06T22:35:17.881Z,50.30
2019-02-06T22:37:45.607Z,43.27
2019-02-06T22:40:14.510Z,45.37
2019-02-06T22:42:43.218Z,48.07
2019-02-06T22:45:19.436Z,44.80
2019-02-06T22:47:48.034Z,42.90
2019-02-06T22:50:16.738Z,38.13
2019-02-06T22:52:44.691Z,39.47
2019-02-06T22:55:12.429Z,39.47
2019-02-06T22:57:39.999Z,41.33
2019-02-06T23:00:24.284Z,35.90
2019-02-06T23:02:50.531Z,35.67
2019-02-06T23:05:18.130Z,37.50
2019-02-06T23:07:45.714Z,39.07
